Weather observations for the past three days for
Anniston Metro Airport
Metric (Imperial)
Date Time (cdt) Wind (kph) Vis. (km) Weather Sky Cond. Temperature (ºC) Relative Humidity Wind Chill (°C) Heat Index (°C) Pressure Precipitation (cm)
Air Dwpt 6 hour altimeter (cm) sea level (mb) 1 hr 3 hr 6 hr
Max. Min.
03 11:53 E 7 16.09 A Few Clouds FEW075 34.4 22.2 49% 39 76.35 1016.4
03 10:53 S 6 16.09 Fair CLR 32.2 22.8 58% 37 76.38 1017.1
03 09:53 Calm 16.09 Mostly Cloudy BKN075 30.6 22.8 63% 35 76.38 1017.1
03 08:53 E 6 16.09 Fair CLR 27.8 23.3 77% 31 76.38 1017.1
03 07:53 Calm 16.09 Fair CLR 25.6 23.3 87% 27 76.38 1017.3
03 06:53 Calm 14.48 Fair CLR 23.9 22.8 25 23.3 94% 23 76.38 1017.0
03 05:53 Calm 16.09 Fair CLR 23.3 22.8 97% 76.33 1016.3
03 04:53 Calm 16.09 A Few Clouds FEW070 23.3 22.8 97% 76.33 1016.2
03 03:53 Calm 16.09 Fair CLR 23.9 23.3 96% 23 76.3 1016.1
03 02:53 Calm 16.09 Fair CLR 23.9 23.3 96% 23 76.3 1016.0
03 01:53 Calm 16.09 Fair CLR 24.4 23.3 94% 24 76.3 1016.0
03 00:53 Calm 16.09 Fair CLR 25 23.9 30.6 25 94% 26 76.3 1016.0
02 23:53 E 6 16.09 Fair CLR 26.1 23.9 88% 28 76.3 1015.9
02 22:53 Calm 16.09 Fair CLR 26.1 23.9 88% 28 76.3 1016.0
02 21:53 Calm 16.09 Fair CLR 26.7 23.9 85% 29 76.3 1016.0
02 20:53 Calm 16.09 Fair CLR 26.7 23.9 85% 29 76.3 1016.1
02 19:53 Calm 16.09 Fair CLR 27.8 23.9 79% 32 76.25 1015.5
02 18:53 Calm 16.09 Fair CLR 30.6 23.9 36.1 30.6 67% 36 76.23 1015.3
02 17:53 E 6 16.09 Fair CLR 34.4 20.6 44% 37 76.23 1015.0
02 16:53 E 7 16.09 Partly Cloudy SCT065 35.6 20.6 41% 39 76.25 1015.2
02 15:53 Vrbl 7 16.09 Partly Cloudy SCT060 35 20.6 43% 38 76.28 1015.6
02 14:53 Calm 16.09 Fair CLR 35 20.6 43% 38 76.33 1016.2
02 13:53 Calm 16.09 Fair CLR 34.4 20.6 44% 37 76.38 1017.1
02 12:53 Calm 16.09 A Few Clouds FEW060 35 21.1 35 22.8 44% 39 76.43 1017.5
02 11:53 NE 6 16.09 Mostly Cloudy SCT050 BKN070 33.3 21.7 51% 37 76.48 1018.4
02 10:53 SE 6 16.09 Fair CLR 32.8 22.8 56% 38 76.53 1019.0
02 09:53 Calm 16.09 Fair CLR 31.1 23.3 63% 36 76.53 1019.1
02 08:53 Calm 16.09 Fair CLR 27.8 23.3 77% 31 76.53 1019.2
02 07:53 E 6 16.09 Fair CLR 25 22.2 85% 26 76.53 1019.3
02 06:53 Calm 14.48 Fair CLR 22.8 21.7 24.4 22.8 94% 76.5 1018.8
02 05:53 Calm 16.09 Fair CLR 22.8 21.7 94% 76.45 1018.2
02 04:53 Calm 16.09 Fair CLR 22.8 22.2 96% 76.43 1017.8
02 03:53 Calm 16.09 Fair CLR 23.3 22.2 94% 76.38 1017.1
02 02:53 Calm 16.09 Fair CLR 23.3 22.8 97% 76.38 1016.9
02 01:53 Calm 16.09 Fair CLR 24.4 22.8 91% 24 76.38 1016.9
02 00:53 E 6 16.09 Fair CLR 24.4 23.3 30 24.4 94% 24 76.38 1017.2
01 23:53 Calm 16.09 Fair CLR 25 23.3 90% 26 76.38 1017.1
01 22:53 Calm 16.09 Fair CLR 25 23.3 90% 26 76.4 1017.4
01 21:53 Calm 16.09 Fair CLR 25.6 23.3 87% 27 76.43 1017.7
01 20:53 Calm 16.09 Fair CLR 26.1 23.3 85% 28 76.35 1017.0
01 19:53 Calm 16.09 Fair CLR 27.2 22.8 77% 30 76.33 1016.5
01 18:53 Calm 16.09 Fair CLR 30 23.3 35 30 67% 34 76.3 1016.3
01 17:53 E 7 16.09 Fair CLR 33.9 20.6 46% 37 76.33 1016.3
01 16:53 E 7 16.09 A Few Clouds FEW100 34.4 20.6 44% 37 76.3 1016.1
01 14:53 Calm 16.09 A Few Clouds FEW100 33.9 20.6 46% 37 76.38 1017.1
01 13:53 N 13 16.09 Mostly Cloudy BKN060 BKN085 33.9 20.6 46% 37 76.43 1017.8
01 12:53 Calm 16.09 Partly Cloudy SCT065 33.3 21.1 33.9 22.2 49% 37 76.48 1018.3
01 11:53 Calm 16.09 Fair CLR 32.8 21.1 50% 36 76.5 1018.9
01 10:53 Calm 16.09 Fair CLR 31.1 21.7 57% 34 76.56 1019.5
01 09:53 Calm 16.09 Fair CLR 29.4 21.7 63% 32 76.58 1020.0
01 08:53 E 7 16.09 Fair CLR 26.7 21.7 74% 29 76.58 1020.0
01 07:53 Calm 16.09 Fair CLR 24.4 21.1 82% 25 76.58 1020.1
01 06:53 NE 6 16.09 Fair CLR 22.2 21.1 23.9 21.7 94% 76.53 1019.5
01 05:53 NE 6 16.09 Fair CLR 22.2 21.1 94% 76.48 1018.6
01 04:53 E 6 16.09 Fair CLR 22.2 21.1 94% 76.45 1018.2
01 03:53 Calm 16.09 Fair CLR 22.2 21.7 97% 76.43 1018.0
01 02:53 Calm 16.09 Fair CLR 22.8 21.7 94% 76.43 1017.6
01 01:53 E 6 16.09 Fair CLR 23.3 22.2 94% 76.43 1017.7
01 00:53 E 6 16.09 Fair CLR 23.9 22.2 28.3 23.3 90% 23 76.45 1018.0
31 23:53 Calm 16.09 Fair CLR 23.9 22.8 94% 23 76.45 1018.2
31 22:53 Calm 16.09 Fair CLR 24.4 22.8 91% 24 76.45 1018.2
31 21:53 Calm 16.09 Fair CLR 25 22.8 88% 26 76.45 1018.2
31 20:53 Calm 16.09 Fair CLR 25 23.3 90% 26 76.43 1017.8
31 19:53 Calm 16.09 Fair CLR 26.1 22.8 82% 28 76.38 1017.2
31 18:53 Calm 16.09 Fair CLR 27.8 22.8 33.9 27.8 74% 31 76.35 1017.1
31 17:53 E 7 16.09 Fair CLR 32.8 20 47% 35 76.35 1016.9
31 16:53 Vrbl 7 16.09 Fair CLR 33.9 20.6 46% 37 76.38 1016.9
31 15:53 Vrbl 6 16.09 A Few Clouds FEW060 33.3 20.6 47% 36 76.4 1017.3
31 14:53 SE 9 16.09 Fair CLR 33.3 20.6 47% 36 76.45 1017.9
31 13:53 Vrbl 6 16.09 Fair CLR 32.8 21.7 52% 36 76.48 1018.5
31 12:53 Vrbl 9 16.09 Mostly Cloudy BKN044 31.7 21.7 32.2 22.8 55% 35 76.56 1019.4
Date Time (cdt) Wind (kph) Vis. (km) Weather Sky Cond. Air Dwpt Max. Min. Relative Humidity Wind Chill (°C) Heat Index (°C) altimeter (cm) sea level (mb) 1 hr 3 hr 6 hr
6 hour
Temperature (ºC) Pressure Precipitation (cm)